createdAt,value
2023-01-06T00:00:26.634Z,8.33
2023-01-06T00:02:53.900Z,9.50
2023-01-06T00:05:21.051Z,8.43
2023-01-06T00:07:52.700Z,4.43
2023-01-06T00:10:20.283Z,6.83
2023-01-06T00:12:48.119Z,5.87
2023-01-06T00:15:15.840Z,6.67
2023-01-06T00:17:42.952Z,4.93
2023-01-06T00:20:10.774Z,6.77
2023-01-06T00:22:39.477Z,6.67
2023-01-06T00:25:06.686Z,5.10
2023-01-06T00:27:33.800Z,6.60
2023-01-06T00:30:00.863Z,3.40
2023-01-06T00:32:27.932Z,3.77
2023-01-06T00:34:55.009Z,4.60
2023-01-06T00:37:22.117Z,4.73
2023-01-06T00:39:49.761Z,5.10
2023-01-06T00:42:16.991Z,6.87
2023-01-06T00:44:44.110Z,4.07
2023-01-06T00:47:15.906Z,6.37
2023-01-06T00:49:43.022Z,5.27
2023-01-06T00:52:10.452Z,5.50
2023-01-06T00:54:37.661Z,3.30
2023-01-06T00:57:06.265Z,2.50
2023-01-06T00:59:33.552Z,4.33
2023-01-06T01:02:01.156Z,3.40
2023-01-06T01:04:29.134Z,5.77
2023-01-06T01:06:56.483Z,6.40
2023-01-06T01:09:28.070Z,4.90
2023-01-06T01:12:10.810Z,6.33
2023-01-06T01:14:44.034Z,8.60
2023-01-06T01:17:24.677Z,7.97
2023-01-06T01:19:54.319Z,6.27
2023-01-06T01:22:22.200Z,7.00
2023-01-06T01:24:49.300Z,11.03
2023-01-06T01:27:16.614Z,9.47
2023-01-06T01:29:43.719Z,7.37
2023-01-06T01:32:10.917Z,8.27
2023-01-06T01:34:38.339Z,8.93
2023-01-06T01:37:05.410Z,9.97
2023-01-06T01:39:32.571Z,11.80
2023-01-06T01:41:59.853Z,10.83
2023-01-06T01:44:45.775Z,10.47
2023-01-06T01:47:14.382Z,11.93
2023-01-06T01:49:44.442Z,13.73
2023-01-06T01:52:12.568Z,15.87
2023-01-06T01:54:40.537Z,12.23
2023-01-06T01:57:11.164Z,12.93
2023-01-06T01:59:39.302Z,15.63
2023-01-06T02:02:06.696Z,14.17
2023-01-06T02:04:36.316Z,14.27
2023-01-06T02:07:04.043Z,15.37
2023-01-06T02:09:36.451Z,16.40
2023-01-06T02:12:03.634Z,11.70
2023-01-06T02:14:31.053Z,12.73
2023-01-06T02:17:07.908Z,13.17
2023-01-06T02:19:53.411Z,12.83
2023-01-06T02:22:39.548Z,12.80
2023-01-06T02:25:06.817Z,12.70
2023-01-06T02:27:36.927Z,13.30
2023-01-06T02:30:22.805Z,17.00
2023-01-06T02:32:49.916Z,11.07
2023-01-06T02:35:16.956Z,11.27
2023-01-06T02:38:02.495Z,11.27
2023-01-06T02:40:34.523Z,14.23
2023-01-06T02:43:10.841Z,13.03
2023-01-06T02:45:43.888Z,13.80
2023-01-06T02:48:19.708Z,9.03
2023-01-06T02:50:53.495Z,8.83
2023-01-06T02:53:24.253Z,9.73
2023-01-06T02:55:52.851Z,9.10
2023-01-06T02:58:25.789Z,9.17
2023-01-06T03:00:57.440Z,9.83
2023-01-06T03:03:25.602Z,7.17
2023-01-06T03:05:54.889Z,6.90
2023-01-06T03:08:24.918Z,6.40
2023-01-06T03:10:52.758Z,4.30
2023-01-06T03:13:31.608Z,6.00
2023-01-06T03:15:58.851Z,9.43
2023-01-06T03:18:26.268Z,4.03
2023-01-06T03:20:54.803Z,4.43
2023-01-06T03:23:22.365Z,7.03
2023-01-06T03:25:51.283Z,4.63
2023-01-06T03:28:18.484Z,4.03
2023-01-06T03:31:08.796Z,6.77
2023-01-06T03:33:47.180Z,3.90
2023-01-06T03:36:20.518Z,5.97
2023-01-06T03:39:02.581Z,6.90
2023-01-06T03:42:21.280Z,4.70
2023-01-06T03:45:13.612Z,7.97
2023-01-06T03:47:46.809Z,4.70
2023-01-06T03:50:20.189Z,5.20
2023-01-06T03:52:50.680Z,5.90
2023-01-06T03:55:19.764Z,5.80
2023-01-06T03:57:49.612Z,6.57
2023-01-06T04:00:21.920Z,10.17
2023-01-06T04:02:49.172Z,4.53
2023-01-06T04:05:18.127Z,4.23
2023-01-06T04:07:45.727Z,5.07
2023-01-06T04:10:14.043Z,3.53
2023-01-06T04:12:41.359Z,4.73
2023-01-06T04:15:12.783Z,4.50
2023-01-06T04:17:40.637Z,2.43
2023-01-06T04:20:08.679Z,4.07
2023-01-06T04:22:35.835Z,4.97
2023-01-06T04:25:03.064Z,3.60
2023-01-06T04:27:30.387Z,3.87
2023-01-06T04:29:57.735Z,5.57
2023-01-06T04:32:25.109Z,3.37
2023-01-06T04:34:52.196Z,4.10
2023-01-06T04:37:21.418Z,3.27
2023-01-06T04:39:48.793Z,5.63
2023-01-06T04:42:16.070Z,2.93
2023-01-06T04:44:43.196Z,3.60
2023-01-06T04:47:10.817Z,5.13
2023-01-06T04:49:37.924Z,2.60
2023-01-06T04:52:05.731Z,4.13
2023-01-06T04:54:32.779Z,3.27
2023-01-06T04:56:59.891Z,3.93
2023-01-06T04:59:26.968Z,4.70
2023-01-06T05:01:54.107Z,5.47
2023-01-06T05:04:21.392Z,4.67
2023-01-06T05:06:48.623Z,4.07
2023-01-06T05:09:15.695Z,5.30
2023-01-06T05:11:42.764Z,2.83
2023-01-06T05:14:09.853Z,1.93
2023-01-06T05:16:38.205Z,3.83
2023-01-06T05:19:05.316Z,4.33
2023-01-06T05:21:33.077Z,4.60
2023-01-06T05:24:00.624Z,3.97
2023-01-06T05:26:28.655Z,8.13
2023-01-06T05:28:56.053Z,3.10
2023-01-06T05:31:23.567Z,4.13
2023-01-06T05:33:50.701Z,3.20
2023-01-06T05:36:18.945Z,5.10
2023-01-06T05:38:49.132Z,2.80
2023-01-06T05:41:16.331Z,2.33
2023-01-06T05:43:43.378Z,3.10
2023-01-06T05:46:11.125Z,3.07
2023-01-06T05:48:38.856Z,2.40
2023-01-06T05:51:07.372Z,5.43
2023-01-06T05:53:39.027Z,4.03
2023-01-06T05:56:06.936Z,2.20
2023-01-06T05:58:34.471Z,7.30
2023-01-06T06:01:02.192Z,2.97
2023-01-06T06:03:29.378Z,4.30
2023-01-06T06:05:56.554Z,4.90
2023-01-06T06:08:23.611Z,5.17
2023-01-06T06:10:50.640Z,4.57
2023-01-06T06:13:17.749Z,3.23
2023-01-06T06:15:45.170Z,4.00
2023-01-06T06:18:12.205Z,6.53
2023-01-06T06:20:39.234Z,3.27
2023-01-06T06:23:06.310Z,4.03
2023-01-06T06:25:33.435Z,3.03
2023-01-06T06:28:00.552Z,2.37
2023-01-06T06:30:27.614Z,2.80
2023-01-06T06:32:54.882Z,3.70
2023-01-06T06:35:21.913Z,2.73
2023-01-06T06:37:49.066Z,2.00
2023-01-06T06:40:16.225Z,5.63
2023-01-06T06:42:43.435Z,4.07
2023-01-06T06:45:10.788Z,4.40
2023-01-06T06:47:37.855Z,2.37
2023-01-06T06:50:05.298Z,3.97
2023-01-06T06:52:32.534Z,4.30
2023-01-06T06:54:59.603Z,2.87
2023-01-06T06:57:26.660Z,2.90
2023-01-06T06:59:53.811Z,2.43
2023-01-06T07:02:21.091Z,3.57
2023-01-06T07:04:48.315Z,2.63
2023-01-06T07:07:15.414Z,2.67
2023-01-06T07:09:42.599Z,3.13
2023-01-06T07:12:09.794Z,4.23
2023-01-06T07:14:37.068Z,5.23
2023-01-06T07:17:04.136Z,3.17
2023-01-06T07:19:31.211Z,3.33
2023-01-06T07:21:58.296Z,2.97
2023-01-06T07:24:25.457Z,3.53
2023-01-06T07:26:52.493Z,4.20
2023-01-06T07:29:19.806Z,5.10
2023-01-06T07:31:46.974Z,3.23
2023-01-06T07:34:14.139Z,3.17
2023-01-06T07:36:41.226Z,4.30
2023-01-06T07:39:08.325Z,5.23
2023-01-06T07:41:35.358Z,2.40
2023-01-06T07:44:02.474Z,2.67
2023-01-06T07:46:29.793Z,5.73
2023-01-06T07:48:57.163Z,2.37
2023-01-06T07:51:24.385Z,2.00
2023-01-06T07:53:51.599Z,3.07
2023-01-06T07:56:18.686Z,4.17
2023-01-06T07:58:45.776Z,2.67
2023-01-06T08:01:13.422Z,2.93
2023-01-06T08:03:40.557Z,3.60
2023-01-06T08:06:08.792Z,2.97
2023-01-06T08:08:37.507Z,2.73
2023-01-06T08:11:05.115Z,4.23
2023-01-06T08:13:32.341Z,3.43
2023-01-06T08:15:59.500Z,2.23
2023-01-06T08:18:26.603Z,3.83
2023-01-06T08:20:53.980Z,5.10
2023-01-06T08:23:21.047Z,3.33
2023-01-06T08:25:48.158Z,6.03
2023-01-06T08:28:15.363Z,4.43
2023-01-06T08:30:43.139Z,3.43
2023-01-06T08:33:10.326Z,4.53
2023-01-06T08:35:37.517Z,4.00
2023-01-06T08:38:04.725Z,22.47
2023-01-06T08:40:31.913Z,7.27
2023-01-06T08:42:59.260Z,3.63
2023-01-06T08:45:26.423Z,3.13
2023-01-06T08:47:53.528Z,4.87
2023-01-06T08:50:20.834Z,4.67
2023-01-06T08:52:48.413Z,4.10
2023-01-06T08:55:15.515Z,2.90
2023-01-06T08:57:42.538Z,3.37
2023-01-06T09:00:09.872Z,2.50
2023-01-06T09:02:37.101Z,3.23
2023-01-06T09:05:04.681Z,11.37
2023-01-06T09:07:31.817Z,11.17
2023-01-06T09:09:59.341Z,5.30
2023-01-06T09:12:26.399Z,5.47
2023-01-06T09:14:53.495Z,5.67
2023-01-06T09:17:20.634Z,3.27
2023-01-06T09:19:47.742Z,3.23
2023-01-06T09:22:14.857Z,5.33
2023-01-06T09:24:41.939Z,3.40
2023-01-06T09:27:09.023Z,4.07
2023-01-06T09:29:36.131Z,3.50
2023-01-06T09:32:03.459Z,5.43
2023-01-06T09:34:30.606Z,3.40
2023-01-06T09:36:57.694Z,3.97
2023-01-06T09:39:24.756Z,4.53
2023-01-06T09:42:08.444Z,3.57
2023-01-06T09:44:56.120Z,3.87
2023-01-06T09:47:26.737Z,3.47
2023-01-06T09:50:03.679Z,3.77
2023-01-06T09:52:33.890Z,5.03
2023-01-06T09:55:05.284Z,4.77
2023-01-06T09:57:40.223Z,3.50
2023-01-06T10:00:27.736Z,3.57
2023-01-06T10:02:56.495Z,4.20
2023-01-06T10:05:28.895Z,3.17
2023-01-06T10:08:02.113Z,3.77
2023-01-06T10:10:29.228Z,6.90
2023-01-06T10:12:59.501Z,2.80
2023-01-06T10:15:48.312Z,2.57
2023-01-06T10:18:40.810Z,3.73
2023-01-06T10:21:12.773Z,3.10
2023-01-06T10:23:42.857Z,3.20
2023-01-06T10:26:14.840Z,2.63
2023-01-06T10:28:48.009Z,4.83
2023-01-06T10:34:02.645Z,3.07
2023-01-06T10:36:39.942Z,2.67
2023-01-06T10:39:10.074Z,2.60
2023-01-06T10:41:56.711Z,2.70
2023-01-06T10:44:23.831Z,3.73
2023-01-06T10:46:50.974Z,3.57
2023-01-06T10:49:19.176Z,3.20
2023-01-06T10:51:51.533Z,3.87
2023-01-06T10:54:20.305Z,4.97
2023-01-06T10:57:00.735Z,3.33
2023-01-06T10:59:28.093Z,3.27
2023-01-06T11:01:57.208Z,3.50
2023-01-06T11:04:25.692Z,2.57
2023-01-06T11:06:55.095Z,3.70
2023-01-06T11:09:42.424Z,3.33
2023-01-06T11:12:12.310Z,2.50
2023-01-06T11:14:41.120Z,3.60
2023-01-06T11:17:13.771Z,2.93
2023-01-06T11:19:42.169Z,2.83
2023-01-06T11:22:27.842Z,2.90
2023-01-06T11:24:55.322Z,3.93
2023-01-06T11:27:22.370Z,2.40
2023-01-06T11:29:49.780Z,3.17
2023-01-06T11:32:24.194Z,2.70
2023-01-06T11:34:53.306Z,4.33
2023-01-06T11:37:38.868Z,3.60
2023-01-06T11:40:24.876Z,3.50
2023-01-06T11:42:57.053Z,3.00
2023-01-06T11:45:34.285Z,3.10
2023-01-06T11:48:02.067Z,3.77
2023-01-06T11:50:29.130Z,5.27
2023-01-06T11:53:05.680Z,3.97
2023-01-06T11:55:32.776Z,3.40
2023-01-06T11:57:59.992Z,4.83
2023-01-06T12:00:46.124Z,5.53
2023-01-06T12:03:35.290Z,5.07
2023-01-06T12:06:11.227Z,3.20
2023-01-06T12:08:42.458Z,3.30
2023-01-06T12:11:18.713Z,5.27
2023-01-06T12:14:06.600Z,4.33
2023-01-06T12:16:41.317Z,4.67
2023-01-06T12:19:15.029Z,4.60
2023-01-06T12:21:42.852Z,4.93
2023-01-06T12:24:14.360Z,3.77
2023-01-06T12:26:43.571Z,2.53
2023-01-06T12:29:13.851Z,2.20
2023-01-06T12:32:00.419Z,2.37
2023-01-06T12:34:33.947Z,3.17
2023-01-06T12:37:19.817Z,3.67
2023-01-06T12:39:59.079Z,4.90
2023-01-06T12:42:30.354Z,5.80
2023-01-06T12:45:17.873Z,3.43
2023-01-06T12:47:54.299Z,6.83
2023-01-06T12:50:54.698Z,2.90
2023-01-06T12:53:24.232Z,3.10
2023-01-06T12:56:10.152Z,6.23
2023-01-06T12:58:47.946Z,3.73
2023-01-06T13:01:19.823Z,5.10
2023-01-06T13:06:37.889Z,5.10
2023-01-06T13:09:17.313Z,4.67
2023-01-06T13:12:16.792Z,7.23
2023-01-06T13:14:48.958Z,4.13
2023-01-06T13:17:26.357Z,2.50
2023-01-06T13:19:55.486Z,5.13
2023-01-06T13:22:26.531Z,10.57
2023-01-06T13:24:53.588Z,5.70
2023-01-06T13:27:40.209Z,6.13
2023-01-06T13:30:28.369Z,4.60
2023-01-06T13:32:58.699Z,9.17
2023-01-06T13:35:33.452Z,3.37
2023-01-06T13:38:09.992Z,4.43
2023-01-06T13:40:38.646Z,10.97
2023-01-06T13:43:16.541Z,7.33
2023-01-06T13:45:46.256Z,4.50
2023-01-06T13:48:17.707Z,7.53
2023-01-06T13:50:45.059Z,4.23
2023-01-06T13:53:20.936Z,7.23
2023-01-06T13:55:48.128Z,8.93
2023-01-06T13:58:25.403Z,6.83
2023-01-06T14:01:12.276Z,14.30
2023-01-06T14:03:43.177Z,7.63
2023-01-06T14:06:33.266Z,5.63
2023-01-06T14:09:01.038Z,7.53
2023-01-06T14:11:28.146Z,4.67
2023-01-06T14:13:56.805Z,13.60
2023-01-06T14:16:39.167Z,13.67
2023-01-06T14:19:10.499Z,25.80
2023-01-06T14:21:37.759Z,7.50
2023-01-06T14:24:06.766Z,4.07
2023-01-06T14:26:46.771Z,8.47
2023-01-06T14:29:32.526Z,9.23
2023-01-06T14:31:59.596Z,12.60
2023-01-06T14:34:26.757Z,37.30
2023-01-06T14:36:56.929Z,30.77
2023-01-06T14:39:25.574Z,35.67
2023-01-06T14:41:58.566Z,12.03
2023-01-06T14:44:28.410Z,13.37
2023-01-06T14:47:03.040Z,12.10
2023-01-06T14:49:45.341Z,10.27
2023-01-06T14:52:20.299Z,13.00
2023-01-06T14:54:48.627Z,8.07
2023-01-06T14:57:24.832Z,6.53
2023-01-06T15:00:10.579Z,7.63
2023-01-06T15:02:38.414Z,5.53
2023-01-06T15:05:07.514Z,4.43
2023-01-06T15:07:34.710Z,6.00
2023-01-06T15:13:05.188Z,9.10
2023-01-06T15:15:33.676Z,8.33
2023-01-06T15:18:02.579Z,6.57
2023-01-06T15:20:32.533Z,6.03
2023-01-06T15:23:00.402Z,8.20
2023-01-06T15:25:28.268Z,7.33
2023-01-06T15:27:57.239Z,9.17
2023-01-06T15:30:25.486Z,9.97
2023-01-06T15:32:53.851Z,9.27
2023-01-06T15:35:28.162Z,9.37
2023-01-06T15:38:04.342Z,9.70
2023-01-06T15:40:31.644Z,8.53
2023-01-06T15:42:58.857Z,9.77
2023-01-06T15:45:28.315Z,10.73
2023-01-06T15:47:56.446Z,9.30
2023-01-06T15:50:25.939Z,9.30
2023-01-06T15:52:54.726Z,10.70
2023-01-06T15:55:32.644Z,8.93
2023-01-06T15:58:08.785Z,9.87
2023-01-06T16:00:48.171Z,10.37
2023-01-06T16:03:19.643Z,9.80
2023-01-06T16:05:51.089Z,14.63
2023-01-06T16:08:25.327Z,10.33
2023-01-06T16:11:11.160Z,8.53
2023-01-06T16:13:38.351Z,7.10
2023-01-06T16:16:09.848Z,8.23
2023-01-06T16:18:37.917Z,7.27
2023-01-06T16:21:17.047Z,7.37
2023-01-06T16:23:48.786Z,6.00
2023-01-06T16:26:17.303Z,7.03
2023-01-06T16:28:54.532Z,4.50
2023-01-06T16:31:32.419Z,5.73
2023-01-06T16:34:15.980Z,5.03
2023-01-06T16:36:43.072Z,5.93
2023-01-06T16:39:15.976Z,6.53
2023-01-06T16:42:25.775Z,6.77
2023-01-06T16:45:00.148Z,10.40
2023-01-06T16:47:27.206Z,7.37
2023-01-06T16:49:54.313Z,4.90
2023-01-06T16:52:21.407Z,5.83
2023-01-06T16:54:52.898Z,7.63
2023-01-06T16:57:20.180Z,3.70
2023-01-06T16:59:47.684Z,5.93
2023-01-06T17:02:19.267Z,6.33
2023-01-06T17:04:47.294Z,7.00
2023-01-06T17:07:15.349Z,7.67
2023-01-06T17:09:43.161Z,5.47
2023-01-06T17:12:37.656Z,3.83
2023-01-06T17:15:05.519Z,5.37
2023-01-06T17:17:32.603Z,4.77
2023-01-06T17:19:59.674Z,4.27
2023-01-06T17:22:28.710Z,5.53
2023-01-06T17:24:59.438Z,5.10
2023-01-06T17:27:28.357Z,6.53
2023-01-06T17:29:56.011Z,6.93
2023-01-06T17:32:26.260Z,4.37
2023-01-06T17:34:53.639Z,6.00
2023-01-06T17:37:23.503Z,4.40
2023-01-06T17:39:51.189Z,5.17
2023-01-06T17:42:18.226Z,3.93
2023-01-06T17:44:48.736Z,4.03
2023-01-06T17:47:15.939Z,5.07
2023-01-06T17:49:51.718Z,4.33
2023-01-06T17:52:31.952Z,5.13
2023-01-06T17:55:27.078Z,4.13
2023-01-06T17:57:59.060Z,5.10
2023-01-06T18:00:29.966Z,5.00
2023-01-06T18:03:00.011Z,4.90
2023-01-06T18:05:27.109Z,7.23
2023-01-06T18:07:57.184Z,5.57
2023-01-06T18:10:24.231Z,6.83
2023-01-06T18:12:51.387Z,7.07
2023-01-06T18:15:27.839Z,6.90
2023-01-06T18:17:59.482Z,6.50
2023-01-06T18:20:26.561Z,7.97
2023-01-06T18:22:53.824Z,8.27
2023-01-06T18:25:24.451Z,7.17
2023-01-06T18:27:52.366Z,7.60
2023-01-06T18:30:21.923Z,8.60
2023-01-06T18:32:50.232Z,8.00
2023-01-06T18:35:20.571Z,7.97
2023-01-06T18:37:48.247Z,9.13
2023-01-06T18:40:19.405Z,8.80
2023-01-06T18:42:48.977Z,9.90
2023-01-06T18:45:32.371Z,9.40
2023-01-06T18:48:06.746Z,9.30
2023-01-06T18:50:37.227Z,9.37
2023-01-06T18:53:14.061Z,9.07
2023-01-06T18:55:46.007Z,9.13
2023-01-06T18:58:13.046Z,10.43
2023-01-06T19:00:41.780Z,10.50
2023-01-06T19:03:08.902Z,9.50
2023-01-06T19:05:36.016Z,11.00
2023-01-06T19:08:11.738Z,10.90
2023-01-06T19:10:39.507Z,11.23
2023-01-06T19:13:12.462Z,12.13
2023-01-06T19:15:39.591Z,10.97
2023-01-06T19:18:12.307Z,10.93
2023-01-06T19:20:39.703Z,10.83
2023-01-06T19:23:15.430Z,10.17
2023-01-06T19:25:48.282Z,11.27
2023-01-06T19:28:22.995Z,12.57
2023-01-06T19:30:53.217Z,11.63
2023-01-06T19:33:20.281Z,12.37
2023-01-06T19:35:47.703Z,11.40
2023-01-06T19:38:28.323Z,13.43
2023-01-06T19:40:56.235Z,13.17
2023-01-06T19:43:33.583Z,14.00
2023-01-06T19:46:21.782Z,14.27
2023-01-06T19:48:49.302Z,14.60
2023-01-06T19:51:22.231Z,15.83
2023-01-06T19:53:54.686Z,15.37
2023-01-06T19:56:26.577Z,14.07
2023-01-06T19:59:04.483Z,15.83
2023-01-06T20:01:34.408Z,15.03
2023-01-06T20:04:01.733Z,14.47
2023-01-06T20:06:29.255Z,14.80
2023-01-06T20:08:56.489Z,15.63
2023-01-06T20:11:24.650Z,16.07
2023-01-06T20:13:52.447Z,15.43
2023-01-06T20:16:19.801Z,15.90
2023-01-06T20:18:46.921Z,15.90
2023-01-06T20:21:14.138Z,15.83
2023-01-06T20:23:41.419Z,16.43
2023-01-06T20:26:08.860Z,25.97
2023-01-06T20:28:35.992Z,22.40
2023-01-06T20:31:03.479Z,16.70
2023-01-06T20:33:30.655Z,17.00
2023-01-06T20:35:57.715Z,14.43
2023-01-06T20:38:25.303Z,15.77
2023-01-06T20:40:52.453Z,15.73
2023-01-06T20:43:19.991Z,14.63
2023-01-06T20:45:47.606Z,13.93
2023-01-06T20:48:14.709Z,14.60
2023-01-06T20:50:42.616Z,14.13
2023-01-06T20:53:09.939Z,13.53
2023-01-06T20:55:37.420Z,13.57
2023-01-06T20:58:04.736Z,18.60
2023-01-06T21:00:35.097Z,14.60
2023-01-06T21:03:02.363Z,13.60
2023-01-06T21:05:29.739Z,13.23
2023-01-06T21:07:56.832Z,13.50
2023-01-06T21:10:24.106Z,13.33
2023-01-06T21:12:51.289Z,13.17
2023-01-06T21:15:18.922Z,13.33
2023-01-06T21:17:46.263Z,12.87
2023-01-06T21:20:13.454Z,13.50
2023-01-06T21:22:40.689Z,13.00
2023-01-06T21:25:08.308Z,12.70
2023-01-06T21:27:35.638Z,11.83
2023-01-06T21:30:05.080Z,12.37
2023-01-06T21:32:32.154Z,12.23
2023-01-06T21:34:59.649Z,11.63
2023-01-06T21:37:26.757Z,11.33
2023-01-06T21:39:53.894Z,10.97
2023-01-06T21:42:56.545Z,11.33
2023-01-06T21:45:23.640Z,10.53
2023-01-06T21:47:51.139Z,11.03
2023-01-06T21:50:19.772Z,11.40
2023-01-06T21:52:47.183Z,10.90
2023-01-06T21:55:14.485Z,10.83
2023-01-06T21:57:41.688Z,10.37
2023-01-06T22:00:10.222Z,10.90
2023-01-06T22:02:37.761Z,9.47
2023-01-06T22:05:05.240Z,9.60
2023-01-06T22:07:32.970Z,9.23
2023-01-06T22:10:00.189Z,9.57
2023-01-06T22:12:27.306Z,8.83
2023-01-06T22:14:57.011Z,8.33
2023-01-06T22:17:24.721Z,8.87
2023-01-06T22:19:53.239Z,7.90
2023-01-06T22:22:22.481Z,8.30
2023-01-06T22:24:50.865Z,8.87
2023-01-06T22:27:17.970Z,8.37
2023-01-06T22:29:45.058Z,8.47
2023-01-06T22:32:12.202Z,8.67
2023-01-06T22:34:39.365Z,9.23
2023-01-06T22:37:06.584Z,9.63
2023-01-06T22:39:33.678Z,10.07
2023-01-06T22:42:01.146Z,10.60
2023-01-06T22:44:28.270Z,10.40
2023-01-06T22:46:55.372Z,11.37
2023-01-06T22:49:22.403Z,13.07
2023-01-06T22:51:49.561Z,12.20
2023-01-06T22:54:16.996Z,11.97
2023-01-06T22:56:44.136Z,11.30
2023-01-06T22:59:11.208Z,11.97
2023-01-06T23:01:38.367Z,12.47
2023-01-06T23:04:05.812Z,12.93
2023-01-06T23:06:34.033Z,15.10
2023-01-06T23:09:01.397Z,14.03
2023-01-06T23:11:29.761Z,12.77
2023-01-06T23:13:57.743Z,13.20
2023-01-06T23:16:26.464Z,12.23
2023-01-06T23:18:54.484Z,12.13
2023-01-06T23:21:26.041Z,12.83
2023-01-06T23:23:53.937Z,15.30
2023-01-06T23:26:23.874Z,13.47
2023-01-06T23:28:51.301Z,14.13
2023-01-06T23:31:20.577Z,13.17
2023-01-06T23:33:49.015Z,12.80
2023-01-06T23:36:18.407Z,14.07
2023-01-06T23:38:45.791Z,13.03
2023-01-06T23:41:14.841Z,14.07
2023-01-06T23:43:41.956Z,13.17
2023-01-06T23:46:19.923Z,13.50
2023-01-06T23:48:47.466Z,15.70
2023-01-06T23:51:15.576Z,13.77
2023-01-06T23:53:43.071Z,13.17
2023-01-06T23:56:14.297Z,13.10
2023-01-06T23:58:42.392Z,14.97
